Time;durP1;ratioP1;P1;durP2;ratioP2;P2;SDS_P1;SDS_P2;PMS_P1;PMS_P2;Temp;Humidity;BMP_temperature;BMP_pressure;BME280_temperature;BME280_humidity;BME280_pressure;Samples;Min_cycle;Max_cycle;Signal;HPM_P1;HPM_P2
2021/04/14 00:01:08;;;;;;;12.90;2.93;;;;;;;2.28;79.03;101585.53;637485;224;24864;-75
2021/04/14 00:03:36;;;;;;;3.90;2.30;;;;;;;2.92;77.72;101578.68;632243;225;32724;-76
2021/04/14 00:06:04;;;;;;;3.83;2.10;;;;;;;2.57;78.34;101577.53;637088;225;24905;-75
2021/04/14 00:08:32;;;;;;;3.17;2.30;;;;;;;2.96;77.34;101571.25;631867;225;32670;-74
2021/04/14 00:11:00;;;;;;;4.63;2.97;;;;;;;2.55;78.10;101571.63;633384;225;24017;-75
2021/04/14 00:13:30;;;;;;;3.70;2.40;;;;;;;3.17;77.08;101570.80;632188;225;32719;-76
2021/04/14 00:15:58;;;;;;;2.93;2.30;;;;;;;2.55;78.48;101567.78;638060;224;23704;-76
2021/04/14 00:18:25;;;;;;;4.10;2.80;;;;;;;3.08;77.81;101569.89;631005;225;33067;-76
2021/04/14 00:20:53;;;;;;;5.30;2.98;;;;;;;3.32;77.04;101562.05;631678;221;32710;-74
2021/04/14 00:23:21;;;;;;;3.30;2.67;;;;;;;2.49;79.06;101573.59;636480;221;23676;-74
2021/04/14 00:25:50;;;;;;;3.17;2.63;;;;;;;2.40;79.41;101576.53;637191;223;25881;-75
2021/04/14 00:28:16;;;;;;;3.60;2.43;;;;;;;2.17;80.27;101574.83;626205;227;24859;-75
2021/04/14 00:30:44;;;;;;;2.40;2.20;;;;;;;2.14;80.46;101583.48;625235;229;24873;-75
2021/04/14 00:33:12;;;;;;;3.43;2.60;;;;;;;1.99;80.41;101584.05;625536;227;24828;-74
2021/04/14 00:35:40;;;;;;;5.03;2.80;;;;;;;1.91;81.30;101588.61;643792;221;28085;-75
2021/04/14 00:38:08;;;;;;;5.33;3.40;;;;;;;2.03;81.25;101583.88;643834;222;24794;-76
2021/04/14 00:40:36;;;;;;;3.97;3.27;;;;;;;1.88;81.29;101583.16;627261;228;24915;-76
2021/04/14 00:43:04;;;;;;;3.37;3.07;;;;;;;1.93;80.69;101585.09;637396;224;24854;-76
2021/04/14 00:45:32;;;;;;;9.73;3.60;;;;;;;1.62;81.42;101584.53;638899;224;24841;-77
2021/04/14 00:48:00;;;;;;;3.80;3.17;;;;;;;1.78;81.54;101584.38;633436;224;26019;-75
2021/04/14 00:50:27;;;;;;;6.43;3.57;;;;;;;1.88;81.53;101591.30;636725;224;24806;-75
2021/04/14 00:52:55;;;;;;;8.27;4.50;;;;;;;1.77;82.35;101586.09;639171;224;24813;-75
2021/04/14 00:55:23;;;;;;;5.27;3.50;;;;;;;1.77;82.13;101593.80;637554;224;24838;-74
2021/04/14 00:57:51;;;;;;;5.03;4.20;;;;;;;2.24;81.31;101589.92;631664;225;32631;-75
2021/04/14 01:00:20;;;;;;;7.10;4.50;;;;;;;1.79;82.59;101584.31;637700;225;23679;-75
2021/04/14 01:02:48;;;;;;;4.87;4.00;;;;;;;1.78;83.04;101589.05;637062;225;24820;-75
2021/04/14 01:05:16;;;;;;;4.70;3.73;;;;;;;1.71;83.75;101588.90;637602;225;24800;-76
2021/04/14 01:07:45;;;;;;;6.60;4.30;;;;;;;1.64;83.88;101595.56;636831;223;26860;-75
2021/04/14 01:10:13;;;;;;;7.50;4.37;;;;;;;1.75;83.49;101596.86;637291;225;24830;-75
2021/04/14 01:12:41;;;;;;;6.60;4.30;;;;;;;1.68;83.69;101593.27;637450;223;24801;-75
2021/04/14 01:15:10;;;;;;;7.60;4.27;;;;;;;1.62;83.93;101593.50;638654;223;24792;-75
2021/04/14 01:17:38;;;;;;;5.90;4.00;;;;;;;1.58;83.77;101585.53;637163;225;24787;-75
2021/04/14 01:20:07;;;;;;;5.13;4.00;;;;;;;1.42;84.70;101591.64;637773;225;24793;-74
2021/04/14 01:22:35;;;;;;;4.80;3.90;;;;;;;1.45;84.52;101595.38;637079;225;24790;-75
2021/04/14 01:25:05;;;;;;;3.80;3.50;;;;;;;1.09;84.14;101586.74;638263;225;24826;-74
2021/04/14 01:27:33;;;;;;;6.40;3.90;;;;;;;0.94;84.86;101591.09;625774;229;24849;-76
2021/04/14 01:30:01;;;;;;;4.53;3.40;;;;;;;0.97;84.87;101591.43;626406;228;24843;-76
2021/04/14 01:32:29;;;;;;;4.87;3.10;;;;;;;1.02;85.62;101589.13;628239;227;24841;-76
2021/04/14 01:34:57;;;;;;;2.83;2.60;;;;;;;0.89;86.66;101599.37;628222;227;24847;-75
2021/04/14 01:37:24;;;;;;;3.43;3.13;;;;;;;0.96;86.64;101590.59;627952;225;24808;-74
2021/04/14 01:39:52;;;;;;;7.63;3.47;;;;;;;1.09;86.59;101594.88;629768;226;24809;-75
2021/04/14 01:42:20;;;;;;;3.50;2.77;;;;;;;1.02;86.15;101592.97;618030;230;24910;-75
2021/04/14 01:44:48;;;;;;;3.00;2.77;;;;;;;0.83;85.99;101592.70;624682;229;24833;-75
2021/04/14 01:47:16;;;;;;;5.23;2.83;;;;;;;0.75;86.26;101588.73;629640;226;24841;-76
2021/04/14 01:49:44;;;;;;;4.17;2.43;;;;;;;0.69;85.95;101586.35;628164;228;24957;-75
2021/04/14 01:52:12;;;;;;;2.80;2.60;;;;;;;0.78;86.10;101578.39;629345;226;24843;-75
2021/04/14 01:54:40;;;;;;;4.27;2.47;;;;;;;0.68;85.63;101578.28;626447;229;24871;-75
2021/04/14 01:57:08;;;;;;;4.75;2.83;;;;;;;1.21;84.92;101579.55;624109;226;32916;-77
2021/04/14 01:59:36;;;;;;;3.17;2.87;;;;;;;0.70;85.58;101577.34;639173;224;23715;-74
2021/04/14 02:02:05;;;;;;;2.80;2.50;;;;;;;0.58;85.68;101579.87;638780;224;24847;-75
2021/04/14 02:04:33;;;;;;;3.95;2.80;;;;;;;1.29;84.50;101570.72;633047;223;32672;-74
2021/04/14 02:07:01;;;;;;;2.87;2.67;;;;;;;0.81;85.54;101577.84;633668;225;23687;-75
2021/04/14 02:09:29;;;;;;;4.00;2.70;;;;;;;1.32;83.62;101565.93;632769;224;32718;-74
2021/04/14 02:11:57;;;;;;;2.97;2.50;;;;;;;0.59;85.20;101562.78;638494;224;23683;-75
2021/04/14 02:14:25;;;;;;;2.47;2.27;;;;;;;0.42;85.85;101572.23;638636;223;25070;-74
2021/04/14 02:16:53;;;;;;;3.45;2.83;;;;;;;1.01;84.61;101570.81;631131;223;32781;-75
2021/04/14 02:19:20;;;;;;;2.50;2.30;;;;;;;0.50;85.89;101563.06;638514;224;23678;-76
2021/04/14 02:21:49;;;;;;;3.10;2.40;;;;;;;0.57;85.65;101569.23;638334;224;24808;-76
2021/04/14 02:24:17;;;;;;;3.70;2.53;;;;;;;0.68;85.71;101574.44;637067;225;24853;-75
2021/04/14 02:26:45;;;;;;;3.77;2.90;;;;;;;0.63;85.80;101569.47;636608;224;24817;-75
2021/04/14 02:29:13;;;;;;;4.37;2.50;;;;;;;1.07;84.92;101562.91;631972;224;32791;-75
2021/04/14 02:31:42;;;;;;;4.40;2.70;;;;;;;0.71;85.08;101562.84;636526;225;23697;-75
2021/04/14 02:34:11;;;;;;;3.13;2.43;;;;;;;0.80;85.50;101563.81;636024;224;24807;-75
2021/04/14 02:36:39;;;;;;;3.25;2.60;;;;;;;1.28;83.94;101561.81;632250;225;32679;-75
2021/04/14 02:39:08;;;;;;;5.17;2.77;;;;;;;0.62;85.02;101555.45;637325;225;24867;-75
2021/04/14 02:41:36;;;;;;;2.93;2.27;;;;;;;0.37;84.66;101553.64;636433;225;24886;-75
2021/04/14 02:44:04;;;;;;;3.90;2.52;;;;;;;0.66;84.32;101548.06;632315;223;32748;-76
2021/04/14 02:46:32;;;;;;;3.42;2.70;;;;;;;0.80;84.23;101545.89;630486;224;32789;-75
2021/04/14 02:49:00;;;;;;;3.33;2.40;;;;;;;0.22;85.34;101545.16;637001;225;23700;-75
2021/04/14 02:51:28;;;;;;;3.17;2.75;;;;;;;0.75;84.86;101554.17;631356;223;32787;-75
2021/04/14 02:53:55;;;;;;;3.10;2.80;;;;;;;0.30;86.31;101556.02;636404;225;23678;-75
2021/04/14 02:56:23;;;;;;;3.60;2.67;;;;;;;0.36;86.66;101552.41;637438;225;25068;-76
2021/04/14 02:58:51;;;;;;;3.77;3.20;;;;;;;0.96;85.42;101551.34;632753;223;32766;-76
2021/04/14 03:01:19;;;;;;;3.13;2.83;;;;;;;0.41;85.88;101540.30;640139;223;24891;-75
2021/04/14 03:04:03;;;;;;;6.27;2.90;;;;;;;0.33;86.11;101549.52;638927;222;24794;-75
2021/04/14 03:06:31;;;;;;;5.80;2.62;;;;;;;0.97;84.56;101546.61;631681;225;32584;-75
2021/04/14 03:08:59;;;;;;;4.23;3.20;;;;;;;0.46;85.80;101543.58;632711;225;24816;-75
2021/04/14 03:11:27;;;;;;;3.53;2.90;;;;;;;0.58;86.38;101549.59;636852;224;25118;-75
2021/04/14 03:13:54;;;;;;;5.03;3.17;;;;;;;0.49;86.17;101550.71;640056;224;24849;-75
2021/04/14 03:16:23;;;;;;;5.07;2.97;;;;;;;0.54;86.45;101545.44;638182;223;24813;-75
2021/04/14 03:18:50;;;;;;;3.07;2.40;;;;;;;0.53;87.08;101551.45;638028;223;24905;-75
2021/04/14 03:21:18;;;;;;;4.77;2.97;;;;;;;0.57;86.66;101550.05;637874;225;24805;-75
2021/04/14 03:23:46;;;;;;;4.80;2.30;;;;;;;0.40;86.06;101542.47;638880;225;24822;-77
2021/04/14 03:26:14;;;;;;;2.70;2.50;;;;;;;0.74;85.48;101541.81;633388;223;32687;-76
2021/04/14 03:28:42;;;;;;;3.03;2.37;;;;;;;0.47;85.87;101545.25;636658;224;23859;-76
2021/04/14 03:31:10;;;;;;;2.60;2.40;;;;;;;1.01;84.59;101543.92;631554;224;32736;-75
2021/04/14 03:33:38;;;;;;;3.13;2.73;;;;;;;0.73;85.42;101536.75;637399;224;23710;-75
2021/04/14 03:36:07;;;;;;;3.60;2.60;;;;;;;1.27;84.67;101541.76;632671;223;32750;-75
2021/04/14 03:38:35;;;;;;;3.40;2.40;;;;;;;0.63;85.78;101533.64;637334;225;23718;-75
2021/04/14 03:41:02;;;;;;;3.70;2.30;;;;;;;0.53;86.22;101547.16;637641;224;24829;-76
2021/04/14 03:43:30;;;;;;;2.63;2.43;;;;;;;0.49;87.36;101557.11;637665;225;24810;-75
2021/04/14 03:45:59;;;;;;;4.05;2.80;;;;;;;1.08;85.70;101546.65;632048;224;32743;-75
2021/04/14 03:48:26;;;;;;;3.13;2.80;;;;;;;0.63;87.31;101559.68;638275;224;26836;-75
2021/04/14 03:50:54;;;;;;;4.63;3.27;;;;;;;0.55;87.48;101562.47;637166;223;25076;-75
2021/04/14 03:53:24;;;;;;;5.85;3.25;;;;;;;1.04;87.20;101564.74;631192;224;32687;-74
2021/04/14 03:55:55;;;;;;;3.27;3.00;;;;;;;0.78;87.76;101559.19;637115;225;23674;-74
2021/04/14 03:58:29;;;;;;;3.50;3.10;;;;;;;0.66;89.29;101565.97;637535;224;24795;-75
2021/04/14 04:00:57;;;;;;;5.33;3.53;;;;;;;0.81;89.24;101556.52;638965;225;24820;-75
2021/04/14 04:03:25;;;;;;;6.30;3.80;;;;;;;0.88;89.03;101558.02;639350;224;24803;-74
2021/04/14 04:05:52;;;;;;;8.60;3.72;;;;;;;1.49;87.73;101550.34;632457;223;32654;-74
2021/04/14 04:08:20;;;;;;;4.67;4.20;;;;;;;1.25;88.47;101551.20;637955;223;23722;-74
2021/04/14 04:10:48;;;;;;;5.90;3.90;;;;;;;1.19;88.63;101559.11;639558;223;24805;-75
2021/04/14 04:13:17;;;;;;;10.33;3.60;;;;;;;1.41;88.79;101557.94;639125;224;24766;-74
2021/04/14 04:15:45;;;;;;;6.00;4.00;;;;;;;1.89;86.48;101550.64;632904;222;33159;-74
2021/04/14 04:18:12;;;;;;;4.20;3.80;;;;;;;1.61;87.09;101552.92;638011;224;23669;-74
2021/04/14 04:20:40;;;;;;;5.27;3.70;;;;;;;1.65;87.19;101552.36;639012;224;24823;-74
2021/04/14 04:23:08;;;;;;;8.40;3.47;;;;;;;1.60;87.85;101545.30;638008;224;24808;-75
2021/04/14 04:25:36;;;;;;;7.07;4.13;;;;;;;1.84;87.39;101552.55;636071;224;24796;-74
2021/04/14 04:28:04;;;;;;;4.40;4.00;;;;;;;1.61;87.90;101554.66;637631;221;25101;-76
2021/04/14 04:30:33;;;;;;;6.65;4.50;;;;;;;2.27;86.62;101552.61;631564;224;32716;-75
2021/04/14 04:33:00;;;;;;;5.80;4.13;;;;;;;2.05;86.88;101546.61;636737;224;23678;-75
2021/04/14 04:35:29;;;;;;;9.57;4.30;;;;;;;1.93;87.39;101556.88;638217;225;28207;-74
2021/04/14 04:37:57;;;;;;;4.77;4.03;;;;;;;1.93;87.71;101559.89;637836;225;24788;-75
2021/04/14 04:40:25;;;;;;;4.83;4.10;;;;;;;1.87;87.81;101558.84;639347;223;24808;-75
2021/04/14 04:42:53;;;;;;;6.23;5.63;;;;;;;1.83;87.70;101558.55;638380;225;24831;-75
2021/04/14 04:45:21;;;;;;;6.60;4.30;;;;;;;1.78;87.90;101558.73;636924;224;27988;-76
2021/04/14 04:47:49;;;;;;;5.80;4.97;;;;;;;1.75;88.14;101560.95;638183;225;24815;-75
2021/04/14 04:50:17;;;;;;;9.57;4.43;;;;;;;1.76;88.18;101567.76;638486;225;24805;-75
2021/04/14 04:52:45;;;;;;;5.50;4.57;;;;;;;1.75;88.36;101572.50;638200;223;24794;-74
2021/04/14 04:55:14;;;;;;;5.67;4.57;;;;;;;1.68;89.00;101574.88;637891;225;25090;-75
2021/04/14 04:57:42;;;;;;;5.67;4.23;;;;;;;1.74;89.11;101578.52;636473;224;24837;-74
2021/04/14 05:00:11;;;;;;;6.83;5.13;;;;;;;2.03;88.19;101578.74;637559;223;24776;-74
2021/04/14 05:02:39;;;;;;;6.37;4.63;;;;;;;1.85;88.25;101569.61;637828;224;24833;-75
2021/04/14 05:05:09;;;;;;;7.72;5.35;;;;;;;2.33;87.06;101570.33;632523;224;32926;-75
2021/04/14 05:07:37;;;;;;;5.93;4.97;;;;;;;1.95;87.30;101568.36;626119;228;24193;-78
2021/04/14 05:10:06;;;;;;;7.85;5.10;;;;;;;2.53;85.32;101568.70;636532;223;32718;-78
2021/04/14 05:12:34;;;;;;;5.27;4.77;;;;;;;2.17;86.71;101565.40;628269;225;23662;-79
2021/04/14 05:15:02;;;;;;;5.63;3.97;;;;;;;2.24;86.77;101562.14;621875;229;24819;-77
2021/04/14 05:17:30;;;;;;;5.63;5.10;;;;;;;2.13;87.00;101562.56;639194;224;24797;-79
2021/04/14 05:19:57;;;;;;;5.77;4.90;;;;;;;2.15;87.02;101565.07;640212;223;24797;-78
2021/04/14 05:22:27;;;;;;;6.07;4.90;;;;;;;2.13;87.57;101575.39;641683;222;25902;-77
2021/04/14 05:24:54;;;;;;;5.70;4.23;;;;;;;2.26;87.63;101576.61;626483;228;25056;-78
2021/04/14 05:27:22;;;;;;;6.10;5.37;;;;;;;2.32;87.65;101580.20;642590;223;24774;-78
2021/04/14 05:29:50;;;;;;;7.17;4.97;;;;;;;2.41;88.02;101586.73;641605;223;24841;-79
2021/04/14 05:32:18;;;;;;;5.63;4.83;;;;;;;2.46;88.10;101582.70;640237;223;24799;-78
2021/04/14 05:34:46;;;;;;;6.17;4.20;;;;;;;2.60;88.22;101590.25;640768;223;24861;-77
2021/04/14 05:37:13;;;;;;;9.63;5.90;;;;;;;2.73;86.05;101580.78;641099;224;27961;-78
2021/04/14 05:39:41;;;;;;;7.23;5.20;;;;;;;2.77;85.43;101564.34;626785;228;24843;-77
2021/04/14 05:42:09;;;;;;;7.30;5.30;;;;;;;2.74;86.36;101574.30;641286;223;24818;-78
2021/04/14 05:44:37;;;;;;;6.47;5.53;;;;;;;2.75;86.09;101579.81;628162;225;25132;-78
2021/04/14 05:47:05;;;;;;;7.13;5.40;;;;;;;2.87;86.05;101572.07;631532;226;24836;-78
2021/04/14 05:49:33;;;;;;;8.37;5.33;;;;;;;2.90;85.82;101574.06;622979;229;24878;-78
2021/04/14 05:52:01;;;;;;;12.30;5.60;;;;;;;3.04;85.71;101581.66;625774;229;24872;-79
2021/04/14 05:54:29;;;;;;;8.83;5.62;;;;;;;3.18;85.02;101579.34;621349;228;32912;-78
2021/04/14 05:56:57;;;;;;;7.80;5.70;;;;;;;3.03;85.57;101576.13;626730;229;23721;-78
2021/04/14 05:59:25;;;;;;;7.73;5.67;;;;;;;3.01;85.49;101583.07;640852;223;24808;-78
2021/04/14 06:01:52;;;;;;;7.57;5.17;;;;;;;2.97;86.31;101594.77;640246;224;24792;-78
2021/04/14 06:04:20;;;;;;;8.57;5.27;;;;;;;3.06;87.27;101598.67;626489;229;24882;-78
2021/04/14 06:06:48;;;;;;;6.30;4.87;;;;;;;3.08;86.69;101599.89;641128;223;24795;-77
2021/04/14 06:09:16;;;;;;;7.40;5.03;;;;;;;3.21;85.86;101599.77;627363;229;25083;-78
2021/04/14 06:11:44;;;;;;;10.53;5.53;;;;;;;3.21;86.81;101603.18;624752;229;24885;-78
2021/04/14 06:14:12;;;;;;;10.50;5.80;;;;;;;3.29;86.44;101599.02;637730;224;24772;-77
2021/04/14 06:16:40;;;;;;;6.63;4.90;;;;;;;3.42;85.72;101597.61;626732;229;28051;-77
2021/04/14 06:19:08;;;;;;;6.90;5.13;;;;;;;3.42;85.95;101601.45;640760;224;24805;-78
2021/04/14 06:21:35;;;;;;;6.37;5.40;;;;;;;3.47;85.73;101609.80;640118;224;24828;-78
2021/04/14 06:24:04;;;;;;;7.00;5.17;;;;;;;3.58;85.74;101609.35;625786;229;24827;-78
2021/04/14 06:26:38;;;;;;;10.63;6.10;;;;;;;3.70;85.43;101602.85;642396;223;24808;-78
2021/04/14 06:29:02;;;;;;;7.80;5.03;;;;;;;3.85;85.22;101601.72;635350;224;24803;-77
2021/04/14 06:31:30;;;;;;;10.10;5.60;;;;;;;3.76;85.16;101600.00;640854;223;24809;-78
2021/04/14 06:33:58;;;;;;;6.60;5.27;;;;;;;3.89;84.87;101597.27;625650;227;24835;-78
2021/04/14 06:36:26;;;;;;;8.03;5.62;;;;;;;4.00;86.00;101601.94;638519;223;32723;-78
2021/04/14 06:38:54;;;;;;;6.00;5.00;;;;;;;3.92;84.66;101605.30;625357;227;23751;-78
2021/04/14 06:41:51;;;;;;;7.20;4.77;;;;;;;3.87;83.49;101605.06;635813;226;27996;-78
2021/04/14 06:44:18;;;;;;;8.90;5.53;;;;;;;4.03;84.84;101609.07;625977;229;24841;-78
2021/04/14 06:46:46;;;;;;;9.90;5.10;;;;;;;4.14;84.43;101608.59;640052;223;24908;-79
2021/04/14 06:49:14;;;;;;;8.45;5.25;;;;;;;4.36;83.53;101595.13;620483;229;32844;-77
2021/04/14 06:51:42;;;;;;;9.00;5.90;;;;;;;4.50;82.66;101596.20;626813;227;23700;-77
2021/04/14 06:54:17;;;;;;;7.43;5.40;;;;;;;4.39;83.26;101595.44;625239;229;24832;-78
2021/04/14 06:56:45;;;;;;;5.87;5.27;;;;;;;4.38;84.13;101601.50;638713;224;24833;-75
2021/04/14 06:59:13;;;;;;;9.30;5.60;;;;;;;4.51;84.45;101606.45;627566;227;24859;-75
2021/04/14 07:01:42;;;;;;;7.70;5.53;;;;;;;4.38;82.52;101598.47;624775;229;24882;-75
2021/04/14 07:04:10;;;;;;;9.30;5.47;;;;;;;4.37;83.03;101596.80;625990;229;24853;-75
2021/04/14 07:06:38;;;;;;;8.40;5.60;;;;;;;4.33;82.24;101596.53;632329;224;24881;-75
2021/04/14 07:09:08;;;;;;;10.80;5.97;;;;;;;4.67;82.28;101601.41;639119;223;24831;-75
2021/04/14 07:11:38;;;;;;;8.47;5.00;;;;;;;4.78;80.96;101596.55;631163;223;25010;-75
2021/04/14 07:14:06;;;;;;;8.55;5.62;;;;;;;5.10;81.21;101597.59;626616;225;33060;-75
2021/04/14 07:16:40;;;;;;;6.80;6.10;;;;;;;4.84;80.88;101585.97;638049;225;23693;-76
2021/04/14 07:19:09;;;;;;;7.57;5.33;;;;;;;4.86;81.49;101591.05;632968;225;24849;-75
2021/04/14 07:21:38;;;;;;;6.97;5.23;;;;;;;4.90;81.03;101596.42;633665;225;24848;-75
2021/04/14 07:24:06;;;;;;;7.80;5.57;;;;;;;5.11;80.16;101595.39;637654;225;28001;-75
2021/04/14 07:26:34;;;;;;;7.10;5.27;;;;;;;5.36;80.47;101593.26;624301;229;24918;-76
2021/04/14 07:29:07;;;;;;;6.87;5.63;;;;;;;5.39;79.56;101587.56;635759;224;24787;-75
2021/04/14 07:31:36;;;;;;;8.28;5.42;;;;;;;5.73;79.43;101586.19;624070;228;32837;-75
2021/04/14 07:34:10;;;;;;;6.10;5.40;;;;;;;5.90;78.54;101587.45;636952;224;25056;-75
2021/04/14 07:36:42;;;;;;;8.70;4.80;;;;;;;6.05;77.33;101577.22;627737;228;24840;-75
2021/04/14 07:39:11;;;;;;;5.70;4.77;;;;;;;6.15;77.12;101571.48;627355;228;24831;-76
2021/04/14 07:41:42;;;;;;;8.17;5.47;;;;;;;6.52;77.20;101566.44;641113;223;24810;-75
2021/04/14 07:44:10;;;;;;;9.37;5.50;;;;;;;6.90;76.94;101565.16;640234;223;24813;-76
2021/04/14 07:46:39;;;;;;;6.07;5.00;;;;;;;6.68;75.34;101560.40;642449;222;24800;-75
2021/04/14 07:49:06;;;;;;;9.57;5.20;;;;;;;6.66;73.92;101555.78;622341;229;32840;-75
2021/04/14 07:51:34;;;;;;;8.43;5.07;;;;;;;6.60;74.95;101557.40;627413;228;24864;-76
2021/04/14 07:54:03;;;;;;;8.83;5.63;;;;;;;6.59;75.37;101559.61;643932;223;31172;-75
2021/04/14 07:56:29;;;;;;;8.00;4.93;;;;;;;6.46;74.03;101553.00;637954;224;24811;-75
2021/04/14 07:59:06;;;;;;;7.03;5.00;;;;;;;6.22;74.48;101544.42;626429;228;24854;-75
2021/04/14 08:01:35;;;;;;;8.40;5.50;;;;;;;6.69;77.00;101568.53;621331;228;43716;-76
2021/04/14 08:04:10;;;;;;;9.43;5.60;;;;;;;6.20;75.37;101560.92;625678;228;24877;-75
2021/04/14 08:06:38;;;;;;;7.43;5.23;;;;;;;5.95;74.89;101562.24;639514;223;24808;-74
2021/04/14 08:09:10;;;;;;;7.80;5.07;;;;;;;5.82;75.35;101558.61;626714;228;25138;-75
2021/04/14 08:11:38;;;;;;;8.43;5.77;;;;;;;5.78;76.37;101568.73;640550;224;24829;-74
2021/04/14 08:14:09;;;;;;;7.27;4.70;;;;;;;6.13;76.10;101569.45;633857;224;32521;-75
2021/04/14 08:16:38;;;;;;;6.55;5.17;;;;;;;6.24;75.29;101567.58;619436;228;33157;-75
2021/04/14 08:19:04;;;;;;;7.23;5.10;;;;;;;5.97;74.03;101561.33;622757;228;43576;-75
2021/04/14 08:21:34;;;;;;;10.10;6.03;;;;;;;6.00;74.62;101554.23;626324;229;24821;-75
2021/04/14 08:24:02;;;;;;;6.47;5.53;;;;;;;6.21;74.79;101553.55;624543;228;24846;-75
2021/04/14 08:26:30;;;;;;;9.77;4.60;;;;;;;6.59;72.94;101547.98;626055;229;24825;-75
2021/04/14 08:29:07;;;;;;;6.10;4.27;;;;;;;6.71;72.95;101540.83;628053;227;24858;-75
2021/04/14 08:31:44;;;;;;;7.20;4.77;;;;;;;6.97;72.30;101532.41;636244;225;24814;-75
2021/04/14 08:34:10;;;;;;;8.73;4.80;;;;;;;6.96;72.59;101530.75;636520;222;24861;-75
2021/04/14 08:36:39;;;;;;;7.80;4.80;;;;;;;7.24;71.70;101533.84;637110;225;28020;-75
2021/04/14 08:39:12;;;;;;;7.70;3.90;;;;;;;7.43;69.43;101516.73;639042;223;24808;-75
2021/04/14 08:41:40;;;;;;;5.73;3.57;;;;;;;7.48;67.27;101505.66;636890;224;24860;-75
2021/04/14 08:44:10;;;;;;;5.60;3.97;;;;;;;7.41;66.69;101500.47;632600;224;32621;-75
2021/04/14 08:46:38;;;;;;;7.10;4.43;;;;;;;7.53;66.70;101497.14;637723;225;24769;-75
2021/04/14 08:49:06;;;;;;;11.97;5.00;;;;;;;7.81;67.22;101486.38;638251;224;24825;-75
2021/04/14 08:51:34;;;;;;;6.57;3.50;;;;;;;7.91;66.29;101486.18;637852;225;24803;-76
2021/04/14 08:54:02;;;;;;;6.13;3.50;;;;;;;8.47;65.51;101481.75;637948;225;24786;-75
2021/04/14 08:56:30;;;;;;;4.90;3.57;;;;;;;8.51;64.22;101480.61;638914;222;25887;-75
2021/04/14 08:58:58;;;;;;;9.93;3.73;;;;;;;8.47;64.89;101476.09;640671;222;24792;-75
2021/04/14 09:01:26;;;;;;;4.73;3.70;;;;;;;8.84;62.03;101457.61;638109;222;24802;-76
2021/04/14 09:03:56;;;;;;;7.00;4.10;;;;;;;9.07;60.96;101452.17;639712;224;24847;-76
2021/04/14 09:06:22;;;;;;;6.63;3.57;;;;;;;9.35;62.60;101445.91;637425;224;24793;-75
2021/04/14 09:08:52;;;;;;;7.93;4.03;;;;;;;9.23;62.44;101446.28;638802;223;24999;-75
2021/04/14 09:11:19;;;;;;;6.45;3.50;;;;;;;9.44;61.25;101437.48;631565;224;32893;-75
2021/04/14 09:13:54;;;;;;;4.20;3.50;;;;;;;9.50;59.82;101430.55;637767;225;24778;-75
2021/04/14 09:16:27;;;;;;;4.97;3.47;;;;;;;10.12;61.25;101424.37;638488;225;24817;-75
2021/04/14 09:18:55;;;;;;;7.70;3.87;;;;;;;10.00;60.68;101425.29;636476;223;24791;-75
2021/04/14 09:21:24;;;;;;;8.80;4.30;;;;;;;9.21;61.70;101426.56;637158;223;24894;-75
2021/04/14 09:23:53;;;;;;;6.75;4.40;;;;;;;8.80;63.85;101436.70;633745;224;32749;-75
2021/04/14 09:26:27;;;;;;;6.83;4.47;;;;;;;8.79;63.53;101438.94;637777;224;23732;-75
2021/04/14 09:28:54;;;;;;;6.43;4.20;;;;;;;8.46;63.86;101434.72;638517;223;27964;-75
2021/04/14 09:31:39;;;;;;;6.50;3.80;;;;;;;8.63;65.57;101447.39;638500;225;24783;-75
2021/04/14 09:33:58;;;;;;;6.90;4.37;;;;;;;8.98;62.31;101437.69;636360;225;24824;-75
2021/04/14 09:36:29;;;;;;;7.00;3.50;;;;;;;9.41;60.51;101429.06;631635;225;37328;-75
2021/04/14 09:39:00;;;;;;;4.33;3.50;;;;;;;9.94;59.17;101412.25;633167;225;32611;-76
2021/04/14 09:41:34;;;;;;;6.70;4.57;;;;;;;9.57;61.08;101421.02;637080;225;23661;-75
2021/04/14 09:44:11;;;;;;;9.93;4.40;;;;;;;8.84;62.88;101419.17;625919;228;24835;-75
2021/04/14 09:46:40;;;;;;;6.13;3.80;;;;;;;8.74;63.05;101422.88;638381;224;24807;-75
2021/04/14 09:49:10;;;;;;;6.67;3.37;;;;;;;8.53;63.09;101417.81;624824;228;24824;-74
2021/04/14 09:51:38;;;;;;;13.43;3.50;;;;;;;8.49;63.30;101422.84;624987;226;24842;-76
2021/04/14 09:54:10;;;;;;;4.73;3.67;;;;;;;8.17;62.62;101415.40;625293;228;24882;-75
2021/04/14 09:56:38;;;;;;;7.87;3.00;;;;;;;8.05;62.79;101420.08;637027;225;25187;-75
2021/04/14 09:59:06;;;;;;;5.40;3.50;;;;;;;7.96;64.04;101414.18;620681;229;43586;-75
2021/04/14 10:01:33;;;;;;;4.53;3.37;;;;;;;7.95;62.85;101414.64;625055;229;24912;-76
2021/04/14 10:04:01;;;;;;;7.20;3.23;;;;;;;8.17;62.36;101411.52;638632;224;24845;-75
2021/04/14 10:06:29;;;;;;;3.90;2.57;;;;;;;8.08;60.77;101400.44;639486;224;24815;-75
2021/04/14 10:08:58;;;;;;;3.00;2.50;;;;;;;8.25;60.65;101396.27;627381;227;24827;-75
2021/04/14 10:11:27;;;;;;;3.13;2.63;;;;;;;8.35;61.71;101403.02;625401;229;24898;-75
2021/04/14 10:13:57;;;;;;;4.53;2.53;;;;;;;7.99;62.10;101398.44;625968;228;25148;-75
2021/04/14 10:16:25;;;;;;;2.10;1.63;;;;;;;7.82;59.59;101392.22;626786;228;24849;-76
2021/04/14 10:19:00;;;;;;;5.43;2.20;;;;;;;7.81;61.27;101386.67;627871;229;24865;-75
2021/04/14 10:21:28;;;;;;;3.50;2.20;;;;;;;7.93;60.35;101391.07;642750;223;24794;-75
2021/04/14 10:23:59;;;;;;;5.13;2.67;;;;;;;7.87;62.24;101392.73;638638;222;24811;-76
2021/04/14 10:26:24;;;;;;;4.58;2.80;;;;;;;7.86;61.73;101391.08;620887;229;32888;-76
2021/04/14 10:28:52;;;;;;;5.50;3.90;;;;;;;8.09;64.37;101396.91;627963;227;23742;-76
2021/04/14 10:31:21;;;;;;;5.17;3.53;;;;;;;8.22;63.89;101400.37;626969;229;24961;-79
2021/04/14 10:33:49;;;;;;;6.37;3.70;;;;;;;8.48;62.51;101396.09;640308;223;24790;-76
2021/04/14 10:36:17;;;;;;;5.07;3.10;;;;;;;8.53;62.09;101386.70;639987;224;25057;-77
2021/04/14 10:38:44;;;;;;;5.70;3.37;;;;;;;8.54;61.88;101389.18;626039;229;24889;-77
2021/04/14 10:41:15;;;;;;;6.80;3.23;;;;;;;8.63;60.88;101386.45;625820;228;25492;-77
2021/04/14 10:43:43;;;;;;;7.40;3.33;;;;;;;8.87;59.73;101378.77;629456;224;25860;-76
2021/04/14 10:46:11;;;;;;;4.23;3.00;;;;;;;9.22;58.78;101373.72;631693;227;25129;-77
2021/04/14 10:48:39;;;;;;;4.70;3.33;;;;;;;9.35;60.66;101373.22;628042;227;24840;-77
2021/04/14 10:51:08;;;;;;;4.63;2.90;;;;;;;9.25;59.03;101364.41;630946;227;24861;-77
2021/04/14 10:53:36;;;;;;;6.27;2.57;;;;;;;9.29;57.37;101358.09;629534;227;24846;-77
2021/04/14 10:56:04;;;;;;;3.40;2.40;;;;;;;9.23;56.96;101344.22;624870;225;24836;-77
2021/04/14 10:58:32;;;;;;;4.53;2.80;;;;;;;9.95;56.92;101337.25;633941;224;24884;-77
2021/04/14 11:01:00;;;;;;;7.10;2.80;;;;;;;10.50;57.99;101331.84;631950;225;32702;-77
2021/04/14 11:03:28;;;;;;;6.67;2.73;;;;;;;10.12;55.63;101325.12;637090;224;24789;-78
2021/04/14 11:05:57;;;;;;;3.37;2.90;;;;;;;9.76;61.48;101344.27;637369;225;24762;-78
2021/04/14 11:08:24;;;;;;;4.07;2.80;;;;;;;9.08;59.22;101338.81;636163;225;24797;-77
2021/04/14 11:10:51;;;;;;;4.17;2.63;;;;;;;9.00;60.38;101343.70;637956;220;24817;-77
2021/04/14 11:13:19;;;;;;;4.83;2.50;;;;;;;8.85;60.79;101341.23;638270;224;26986;-77
2021/04/14 11:15:47;;;;;;;2.77;2.57;;;;;;;8.81;61.56;101351.47;637544;225;25119;-76
2021/04/14 11:18:15;;;;;;;3.30;3.00;;;;;;;8.67;61.12;101348.99;638090;224;24824;-76
2021/04/14 11:20:44;;;;;;;6.73;2.67;;;;;;;8.87;61.21;101341.98;640038;222;24823;-76
2021/04/14 11:23:19;;;;;;;2.97;2.40;;;;;;;8.77;58.85;101338.83;638807;224;24792;-76
2021/04/14 11:25:47;;;;;;;3.70;2.63;;;;;;;8.86;58.51;101340.30;639502;224;24792;-76
2021/04/14 11:28:15;;;;;;;7.20;2.63;;;;;;;9.07;57.97;101334.56;638903;224;24840;-76
2021/04/14 11:30:47;;;;;;;4.00;2.37;;;;;;;8.97;59.28;101329.66;639276;224;24821;-76
2021/04/14 11:33:16;;;;;;;6.63;3.30;;;;;;;8.95;60.89;101343.20;639114;223;24835;-76
2021/04/14 11:35:43;;;;;;;4.37;2.40;;;;;;;8.92;57.74;101336.00;638915;224;26978;-76
2021/04/14 11:38:28;;;;;;;4.50;2.60;;;;;;;9.25;58.98;101333.73;638405;223;27953;-76
2021/04/14 11:40:57;;;;;;;4.83;2.43;;;;;;;9.59;53.52;101319.17;636599;225;24829;-76